Time;durP1;ratioP1;P1;durP2;ratioP2;P2;SDS_P1;SDS_P2;PMS_P1;PMS_P2;Temp;Humidity;BMP_temperature;BMP_pressure;BME280_temperature;BME280_humidity;BME280_pressure;Samples;Min_cycle;Max_cycle;Signal;HPM_P1;HPM_P2
2023/10/14 00:01:08;;;;;;;7.13;3.95;;;18.40;93.90;;;;;;4922074;29;20063;-85
2023/10/14 00:03:33;;;;;;;6.57;3.85;;;18.40;93.90;;;;;;4938599;29;20087;-84
2023/10/14 00:06:07;;;;;;;6.97;4.20;;;18.40;93.90;;;;;;4921744;29;20024;-85
2023/10/14 00:08:39;;;;;;;7.88;4.70;;;18.40;94.00;;;;;;4921761;29;20024;-85
2023/10/14 00:11:07;;;;;;;8.55;3.95;;;18.40;94.00;;;;;;4921733;29;20027;-84
2023/10/14 00:13:42;;;;;;;6.68;3.70;;;18.40;94.00;;;;;;4921714;29;20039;-85
2023/10/14 00:18:55;;;;;;;6.75;3.90;;;18.40;94.10;;;;;;4938650;29;20413;-84
2023/10/14 00:21:23;;;;;;;7.18;3.80;;;18.40;94.10;;;;;;4921421;29;20043;-84
2023/10/14 00:23:50;;;;;;;6.63;3.80;;;18.40;94.10;;;;;;4921349;29;20024;-84
2023/10/14 00:26:16;;;;;;;7.60;3.80;;;18.40;94.10;;;;;;4921532;29;20023;-84
2023/10/14 00:28:45;;;;;;;7.07;4.07;;;18.40;94.10;;;;;;4921330;29;20030;-84
2023/10/14 00:31:15;;;;;;;6.55;4.18;;;18.40;94.10;;;;;;4921316;29;20119;-84
2023/10/14 00:33:41;;;;;;;8.13;4.35;;;18.30;94.10;;;;;;4921109;29;20486;-84
2023/10/14 00:36:16;;;;;;;8.98;4.20;;;18.40;94.20;;;;;;4921233;29;20454;-84
2023/10/14 00:38:45;;;;;;;8.35;4.30;;;18.40;94.20;;;;;;4921102;29;20545;-84
2023/10/14 00:41:12;;;;;;;8.25;4.60;;;18.30;94.20;;;;;;4921104;29;20060;-84
2023/10/14 00:43:41;;;;;;;8.00;4.30;;;18.40;94.20;;;;;;4921119;29;20055;-85
2023/10/14 00:46:14;;;;;;;8.90;4.07;;;18.40;94.20;;;;;;4921069;29;20082;-84
2023/10/14 00:48:47;;;;;;;7.30;4.45;;;18.40;94.10;;;;;;4938297;29;20028;-84
2023/10/14 00:51:14;;;;;;;7.60;4.75;;;18.40;94.10;;;;;;4921158;29;20032;-84
2023/10/14 00:53:52;;;;;;;7.65;4.10;;;18.40;94.00;;;;;;4937755;29;20421;-84
2023/10/14 00:56:19;;;;;;;6.20;4.00;;;18.40;93.90;;;;;;4937800;29;20394;-84
2023/10/14 00:58:50;;;;;;;8.13;4.05;;;18.40;93.90;;;;;;4920577;29;20384;-84
2023/10/14 01:01:17;;;;;;;6.32;3.72;;;18.40;93.90;;;;;;4937602;29;20028;-84
2023/10/14 01:03:48;;;;;;;7.43;4.18;;;18.40;93.90;;;;;;4919349;29;20031;-84
2023/10/14 01:08:49;;;;;;;6.28;3.70;;;18.40;93.80;;;;;;4937860;29;20027;-84
2023/10/14 01:11:17;;;;;;;7.35;3.80;;;18.40;93.90;;;;;;4920353;29;20030;-84
2023/10/14 01:13:44;;;;;;;6.10;3.95;;;18.30;93.80;;;;;;4920184;29;20028;-85
2023/10/14 01:16:11;;;;;;;7.55;3.97;;;18.40;93.90;;;;;;4920319;29;20028;-84
2023/10/14 01:18:39;;;;;;;7.32;3.95;;;18.40;93.90;;;;;;4937294;29;20028;-84
2023/10/14 01:21:06;;;;;;;7.72;4.43;;;18.30;93.90;;;;;;4920030;29;20032;-84
2023/10/14 01:23:40;;;;;;;7.22;4.10;;;18.40;93.90;;;;;;4919909;29;20450;-84
2023/10/14 01:26:09;;;;;;;7.25;3.80;;;18.40;93.90;;;;;;4920363;29;20031;-84
2023/10/14 01:28:42;;;;;;;6.28;3.67;;;18.30;93.90;;;;;;4920081;29;20030;-84
2023/10/14 01:31:38;;;;;;;7.75;3.88;;;18.30;94.00;;;;;;4920190;29;20059;-84
2023/10/14 01:34:07;;;;;;;7.05;4.30;;;18.40;94.00;;;;;;4919747;29;20023;-84
2023/10/14 01:36:37;;;;;;;7.57;4.35;;;18.30;93.90;;;;;;4920131;29;20036;-84
2023/10/14 01:39:09;;;;;;;7.95;3.83;;;18.40;94.00;;;;;;4919914;29;20078;-84
2023/10/14 01:41:35;;;;;;;6.65;3.90;;;18.40;94.00;;;;;;4919970;29;20087;-84
2023/10/14 01:44:05;;;;;;;6.40;3.67;;;18.30;94.00;;;;;;4919557;29;20398;-84
2023/10/14 01:46:32;;;;;;;6.60;3.45;;;18.30;94.00;;;;;;4919797;29;20047;-84
2023/10/14 01:49:08;;;;;;;8.00;4.15;;;18.40;94.00;;;;;;4919760;29;20486;-84
2023/10/14 01:51:33;;;;;;;5.45;3.28;;;18.40;94.00;;;;;;4936836;29;20034;-85
2023/10/14 01:53:59;;;;;;;6.55;3.70;;;18.40;93.90;;;;;;4919312;29;20032;-84
2023/10/14 01:56:27;;;;;;;6.70;3.95;;;18.40;93.90;;;;;;4919603;29;20090;-84
2023/10/14 01:58:57;;;;;;;6.80;4.03;;;18.40;93.80;;;;;;4919502;29;20126;-84
2023/10/14 02:01:23;;;;;;;6.80;4.00;;;18.40;93.80;;;;;;4919442;29;20031;-84
2023/10/14 02:03:54;;;;;;;7.20;4.10;;;18.40;93.80;;;;;;4919031;29;20015;-84
2023/10/14 02:06:26;;;;;;;6.50;4.00;;;18.40;93.80;;;;;;4919480;29;20023;-84
2023/10/14 02:08:53;;;;;;;6.60;3.90;;;18.40;93.80;;;;;;4937649;29;20264;-84
2023/10/14 02:11:24;;;;;;;7.70;4.07;;;18.40;93.80;;;;;;4919978;29;20027;-84
2023/10/14 02:13:50;;;;;;;7.80;4.00;;;18.40;93.80;;;;;;4918652;29;20474;-84
2023/10/14 02:16:16;;;;;;;6.05;3.28;;;18.40;93.80;;;;;;4919600;29;20275;-84
2023/10/14 02:18:42;;;;;;;5.72;3.30;;;18.40;93.80;;;;;;4919392;29;20032;-84
2023/10/14 02:21:11;;;;;;;5.72;3.38;;;18.30;93.80;;;;;;4919302;29;20450;-84
2023/10/14 02:23:43;;;;;;;5.97;3.50;;;18.40;93.90;;;;;;4918984;29;20027;-84
2023/10/14 02:26:24;;;;;;;7.20;3.63;;;18.30;93.90;;;;;;4919171;29;20063;-84
2023/10/14 02:28:55;;;;;;;6.45;3.42;;;18.30;93.90;;;;;;4919096;29;20028;-84
2023/10/14 02:33:57;;;;;;;6.38;3.60;;;18.30;93.90;;;;;;4935626;29;20486;-84
2023/10/14 02:36:29;;;;;;;6.40;3.30;;;18.30;93.90;;;;;;4936001;29;20028;-84
2023/10/14 02:38:56;;;;;;;7.18;3.83;;;18.30;93.90;;;;;;4918890;29;20046;-85
2023/10/14 02:41:26;;;;;;;5.82;3.42;;;18.30;93.90;;;;;;4918813;29;20126;-84
2023/10/14 02:46:30;;;;;;;6.15;3.50;;;18.30;93.90;;;;;;4936163;29;20024;-84
2023/10/14 02:49:02;;;;;;;5.85;3.30;;;18.30;93.90;;;;;;4918902;29;20027;-84
2023/10/14 02:51:32;;;;;;;6.75;3.55;;;18.40;93.90;;;;;;4918706;29;20027;-84
2023/10/14 02:54:04;;;;;;;6.28;3.20;;;18.40;93.90;;;;;;4943259;28;20110;-85
2023/10/14 02:56:44;;;;;;;6.35;3.42;;;18.40;93.90;;;;;;4938400;29;20394;-84
2023/10/14 02:59:15;;;;;;;6.45;3.50;;;18.40;93.80;;;;;;4918750;29;20028;-84
2023/10/14 03:01:41;;;;;;;5.55;3.13;;;18.40;93.70;;;;;;4918649;29;20027;-84
2023/10/14 03:04:08;;;;;;;5.97;3.58;;;18.40;93.70;;;;;;4935626;29;20117;-84
2023/10/14 03:06:46;;;;;;;6.30;3.47;;;18.40;93.70;;;;;;4918591;29;20486;-84
2023/10/14 03:09:17;;;;;;;5.18;3.03;;;18.40;93.70;;;;;;4918383;29;20036;-84
2023/10/14 03:11:44;;;;;;;5.43;3.10;;;18.40;94.00;;;;;;4918625;29;20032;-84
2023/10/14 03:14:10;;;;;;;6.20;3.33;;;18.40;93.80;;;;;;4918194;29;20039;-84
2023/10/14 03:16:35;;;;;;;6.35;3.60;;;18.40;93.90;;;;;;4935635;29;20027;-84
2023/10/14 03:19:02;;;;;;;7.22;3.50;;;18.40;93.80;;;;;;4918580;29;20110;-84
2023/10/14 03:21:30;;;;;;;6.00;3.30;;;18.30;93.80;;;;;;4918069;29;20042;-84
2023/10/14 03:23:57;;;;;;;5.03;3.30;;;18.30;93.90;;;;;;4918197;29;20024;-84
2023/10/14 03:26:28;;;;;;;6.10;3.50;;;18.30;93.80;;;;;;4938999;29;20030;-84
2023/10/14 03:28:53;;;;;;;5.82;3.13;;;18.30;93.80;;;;;;4924743;29;20020;-84
2023/10/14 03:31:22;;;;;;;5.85;3.20;;;18.30;93.90;;;;;;4924555;29;20028;-84
2023/10/14 03:33:48;;;;;;;6.10;3.13;;;18.30;93.90;;;;;;4940982;29;20050;-84
2023/10/14 03:36:17;;;;;;;4.97;3.10;;;18.30;93.90;;;;;;4924582;29;20482;-84
2023/10/14 03:38:55;;;;;;;5.45;2.72;;;18.30;93.90;;;;;;4924580;29;20031;-84
2023/10/14 03:41:24;;;;;;;5.70;3.10;;;18.30;93.90;;;;;;4924476;29;20038;-84
2023/10/14 03:46:35;;;;;;;5.28;3.10;;;18.30;93.90;;;;;;4941868;29;20111;-84
2023/10/14 03:49:25;;;;;;;5.65;3.03;;;18.30;93.90;;;;;;4941515;29;20016;-84
2023/10/14 03:51:54;;;;;;;;;;;18.30;93.90;;;;;;4941902;29;20031;-84
2023/10/14 03:54:23;;;;;;;5.75;3.03;;;18.30;93.90;;;;;;4924140;29;19913;-84
2023/10/14 03:56:50;;;;;;;5.85;3.20;;;18.30;93.90;;;;;;4924408;29;20027;-84
2023/10/14 03:59:25;;;;;;;5.80;3.17;;;18.40;93.80;;;;;;4941312;29;20034;-84
2023/10/14 04:01:54;;;;;;;5.40;2.85;;;18.40;94.00;;;;;;4941525;29;20114;-84
2023/10/14 04:04:21;;;;;;;4.95;2.83;;;18.40;93.70;;;;;;4924148;29;20024;-84
2023/10/14 04:09:38;;;;;;;5.07;2.83;;;18.40;93.70;;;;;;4941593;29;20024;-84
2023/10/14 04:14:54;;;;;;;5.88;2.85;;;18.40;93.80;;;;;;4941533;29;20042;-84
2023/10/14 04:17:21;;;;;;;5.78;2.70;;;18.40;93.80;;;;;;4924144;29;20019;-84
2023/10/14 04:20:33;;;;;;;4.97;2.80;;;18.30;93.80;;;;;;4924185;29;20071;-84
2023/10/14 04:22:35;;;;;;;5.53;3.17;;;18.30;93.80;;;;;;4933685;29;20039;-84
2023/10/14 04:27:56;;;;;;;5.22;3.17;;;18.30;93.80;;;;;;4941231;29;20479;-84
2023/10/14 04:30:32;;;;;;;6.05;3.13;;;18.30;93.80;;;;;;4924155;29;20135;-84
2023/10/14 04:35:31;;;;;;;5.15;3.00;;;18.30;93.90;;;;;;4941362;29;20036;-84
2023/10/14 04:37:58;;;;;;;5.53;2.90;;;18.30;93.90;;;;;;4920906;29;20490;-84
2023/10/14 04:43:11;;;;;;;4.95;2.75;;;18.30;93.90;;;;;;4938009;29;20024;-84
2023/10/14 04:45:38;;;;;;;5.60;2.60;;;18.30;93.90;;;;;;4937936;29;20027;-84
2023/10/14 04:48:05;;;;;;;4.93;2.80;;;18.30;93.90;;;;;;4920828;29;20028;-84
2023/10/14 04:50:31;;;;;;;4.97;2.78;;;18.30;93.90;;;;;;4920897;29;20072;-84
2023/10/14 04:52:57;;;;;;;6.55;3.53;;;18.30;93.90;;;;;;4940487;28;20490;-84
2023/10/14 04:55:26;;;;;;;4.00;2.50;;;18.30;93.80;;;;;;4948802;29;20046;-84
2023/10/14 05:00:49;;;;;;;4.90;2.90;;;18.30;93.80;;;;;;4937976;29;20471;-84
2023/10/14 05:03:19;;;;;;;4.72;2.83;;;18.30;93.70;;;;;;4920340;29;20038;-84
2023/10/14 05:06:14;;;;;;;5.45;2.78;;;18.40;93.70;;;;;;4925298;29;20648;-82
2023/10/14 05:08:51;;;;;;;5.18;2.80;;;18.40;93.70;;;;;;4939437;29;20511;-84
2023/10/14 05:11:23;;;;;;;5.20;2.60;;;18.40;93.70;;;;;;4956784;29;20023;-84
2023/10/14 05:16:58;;;;;;;4.82;2.70;;;18.30;93.80;;;;;;4956671;29;19918;-84
2023/10/14 05:19:24;;;;;;;;;;;18.30;93.80;;;;;;4955651;29;21777;-84
2023/10/14 05:22:10;;;;;;;4.40;2.33;;;18.30;93.80;;;;;;4956405;28;19917;-84
2023/10/14 05:24:39;;;;;;;4.47;2.63;;;18.30;93.80;;;;;;4939198;29;20027;-84
2023/10/14 05:27:05;;;;;;;4.55;2.58;;;18.30;93.80;;;;;;4939128;29;20489;-84
2023/10/14 05:29:30;;;;;;;4.82;2.58;;;18.30;93.90;;;;;;4956578;29;20081;-84
2023/10/14 05:32:15;;;;;;;6.07;2.83;;;18.30;93.90;;;;;;4939037;29;20037;-84
2023/10/14 05:34:43;;;;;;;5.00;2.58;;;18.30;93.90;;;;;;4955891;29;20026;-84
2023/10/14 05:37:11;;;;;;;5.18;2.97;;;18.30;93.90;;;;;;4938988;29;20175;-84
2023/10/14 05:39:38;;;;;;;4.57;2.45;;;18.30;93.90;;;;;;4956108;29;20023;-84
2023/10/14 05:42:13;;;;;;;5.35;2.60;;;18.30;93.90;;;;;;4955917;29;20030;-84
2023/10/14 05:44:46;;;;;;;4.82;2.60;;;18.30;94.00;;;;;;4938863;29;20497;-84
2023/10/14 05:47:17;;;;;;;4.57;2.47;;;18.30;93.90;;;;;;4955787;29;20174;-85
2023/10/14 05:49:43;;;;;;;3.53;2.10;;;18.20;94.10;;;;;;4952345;28;20034;-84
2023/10/14 05:52:11;;;;;;;4.85;2.78;;;18.30;93.90;;;;;;4932233;29;20042;-83
2023/10/14 05:54:37;;;;;;;5.30;2.65;;;18.30;93.90;;;;;;4933482;29;20175;-84
2023/10/14 05:57:03;;;;;;;5.00;2.63;;;18.30;93.80;;;;;;4933734;29;20379;-84
2023/10/14 05:59:29;;;;;;;4.32;2.40;;;18.30;93.80;;;;;;4934289;29;20035;-85
2023/10/14 06:01:55;;;;;;;4.43;2.40;;;18.30;93.80;;;;;;4933981;29;20125;-85
2023/10/14 06:04:21;;;;;;;4.50;2.25;;;18.30;93.70;;;;;;4945923;29;20044;-85
2023/10/14 06:06:46;;;;;;;5.88;2.60;;;18.30;93.70;;;;;;4936187;29;20075;-84
2023/10/14 06:09:16;;;;;;;3.80;2.30;;;18.30;93.70;;;;;;4935749;29;20627;-84
2023/10/14 06:11:42;;;;;;;4.60;2.70;;;18.30;93.70;;;;;;4953551;29;20472;-84
2023/10/14 06:14:07;;;;;;;5.03;2.78;;;18.30;93.70;;;;;;4935406;29;20123;-84
2023/10/14 06:16:33;;;;;;;5.30;2.40;;;18.30;93.70;;;;;;4935855;29;20121;-84
2023/10/14 06:19:04;;;;;;;4.20;2.45;;;18.30;93.70;;;;;;4936006;29;20050;-85
2023/10/14 06:21:33;;;;;;;4.88;2.53;;;18.30;93.70;;;;;;4935789;29;20031;-84
2023/10/14 06:24:00;;;;;;;4.28;2.38;;;18.30;93.70;;;;;;4935085;29;20038;-85
2023/10/14 06:26:26;;;;;;;4.60;2.28;;;18.30;93.70;;;;;;4935746;29;20046;-85
2023/10/14 06:28:56;;;;;;;5.05;2.38;;;18.30;93.70;;;;;;4935910;29;20035;-84
2023/10/14 06:31:22;;;;;;;4.63;2.60;;;18.30;93.70;;;;;;4953994;29;20023;-85
2023/10/14 06:33:47;;;;;;;4.07;2.38;;;18.40;93.70;;;;;;4936279;29;20034;-85
2023/10/14 06:36:17;;;;;;;5.30;2.70;;;18.30;93.70;;;;;;4953727;29;20481;-83
2023/10/14 06:38:46;;;;;;;5.00;2.28;;;18.30;93.70;;;;;;4937763;28;20066;-85
2023/10/14 06:41:30;;;;;;;4.53;2.33;;;18.40;93.70;;;;;;4972284;28;20117;-85
2023/10/14 06:43:55;;;;;;;4.10;2.22;;;18.40;93.70;;;;;;4941420;29;20058;-83
2023/10/14 06:46:21;;;;;;;4.15;2.40;;;18.40;93.60;;;;;;4936447;29;20059;-83
2023/10/14 06:48:52;;;;;;;4.38;2.55;;;18.40;93.60;;;;;;4953900;28;20062;-86
2023/10/14 06:51:19;;;;;;;5.35;2.60;;;18.40;93.60;;;;;;4942438;28;20038;-84
2023/10/14 06:53:44;;;;;;;5.05;2.30;;;18.40;93.60;;;;;;4941328;28;20035;-84
2023/10/14 06:56:11;;;;;;;5.82;2.58;;;18.50;93.60;;;;;;4955531;28;20038;-85
2023/10/14 06:58:39;;;;;;;4.78;2.30;;;18.50;93.50;;;;;;4955601;28;20031;-85
2023/10/14 07:01:06;;;;;;;4.43;2.30;;;18.50;93.50;;;;;;4953417;28;20852;-83
2023/10/14 07:03:33;;;;;;;3.55;1.92;;;18.50;93.40;;;;;;4935962;29;20487;-84
2023/10/14 07:05:59;;;;;;;4.10;2.20;;;18.50;93.30;;;;;;4916566;29;20023;-84
2023/10/14 07:08:27;;;;;;;4.80;2.47;;;18.60;93.20;;;;;;4933218;29;20034;-84
2023/10/14 07:10:54;;;;;;;5.80;2.25;;;18.60;93.10;;;;;;4945832;29;20027;-84
2023/10/14 07:13:21;;;;;;;4.85;2.25;;;18.60;93.10;;;;;;4935742;29;20019;-85
2023/10/14 07:15:48;;;;;;;4.57;2.10;;;18.60;93.10;;;;;;4966127;28;20026;-84
2023/10/14 07:18:14;;;;;;;4.03;1.90;;;18.60;93.00;;;;;;4938720;28;20556;-84
2023/10/14 07:20:42;;;;;;;4.22;2.25;;;18.60;93.00;;;;;;4945721;29;20126;-85
2023/10/14 07:23:08;;;;;;;3.80;1.92;;;18.70;93.10;;;;;;4942245;28;20074;-84
2023/10/14 07:25:36;;;;;;;3.90;2.03;;;18.70;93.10;;;;;;4954967;28;20110;-84
2023/10/14 07:28:07;;;;;;;4.03;2.13;;;18.70;93.00;;;;;;4954898;28;20031;-84
2023/10/14 07:30:34;;;;;;;4.85;2.00;;;18.70;93.20;;;;;;4952413;28;20089;-84
2023/10/14 07:33:01;;;;;;;5.78;2.40;;;18.70;93.00;;;;;;4915833;29;20066;-83
2023/10/14 07:35:27;;;;;;;4.57;2.10;;;18.80;93.00;;;;;;4952021;28;20027;-84
2023/10/14 07:37:53;;;;;;;4.80;2.10;;;18.80;93.00;;;;;;4948555;29;20031;-85
2023/10/14 07:40:23;;;;;;;4.43;2.17;;;18.80;93.00;;;;;;4958258;28;20130;-84
2023/10/14 07:42:53;;;;;;;4.35;2.00;;;18.80;93.00;;;;;;4952825;28;20408;-83
2023/10/14 07:45:21;;;;;;;3.78;2.03;;;18.80;93.00;;;;;;4949924;29;20028;-84
2023/10/14 07:47:48;;;;;;;4.00;2.00;;;18.80;92.90;;;;;;4954559;29;20026;-84
2023/10/14 07:50:15;;;;;;;5.03;2.20;;;18.80;93.00;;;;;;4954422;29;20078;-84
2023/10/14 07:52:41;;;;;;;4.97;1.80;;;18.80;93.00;;;;;;4953039;28;20101;-84
2023/10/14 07:55:15;;;;;;;4.03;2.00;;;18.80;93.00;;;;;;4956186;28;20031;-86
2023/10/14 07:57:41;;;;;;;4.63;2.10;;;18.80;93.00;;;;;;4950216;29;20023;-86
2023/10/14 08:00:12;;;;;;;3.53;1.90;;;18.80;93.00;;;;;;4942948;28;20035;-86
2023/10/14 08:02:39;;;;;;;3.28;1.88;;;18.80;93.00;;;;;;4955971;28;20046;-86
2023/10/14 08:05:07;;;;;;;3.38;1.80;;;18.80;93.00;;;;;;4973502;28;20027;-86
2023/10/14 08:07:42;;;;;;;4.07;1.83;;;18.90;92.90;;;;;;4955147;28;20433;-86
2023/10/14 08:10:18;;;;;;;3.97;1.80;;;19.00;92.80;;;;;;4945672;29;20034;-86
2023/10/14 08:12:45;;;;;;;4.00;1.83;;;19.00;92.70;;;;;;4949888;28;20035;-85
2023/10/14 08:15:11;;;;;;;4.47;1.90;;;19.00;92.60;;;;;;4948512;29;20035;-86
2023/10/14 08:17:36;;;;;;;4.15;1.70;;;19.00;92.60;;;;;;4940581;29;20038;-86
2023/10/14 08:20:12;;;;;;;3.90;1.77;;;19.00;92.60;;;;;;4940441;29;20034;-86
2023/10/14 08:22:41;;;;;;;3.85;2.10;;;19.10;92.60;;;;;;4956825;28;20125;-87
2023/10/14 08:25:07;;;;;;;4.45;1.80;;;19.10;92.60;;;;;;4959389;28;20055;-86
2023/10/14 08:27:33;;;;;;;3.75;1.80;;;19.10;92.60;;;;;;4959526;28;20501;-86
2023/10/14 08:30:00;;;;;;;3.88;1.90;;;19.10;92.60;;;;;;4959056;28;20501;-86
2023/10/14 08:32:26;;;;;;;3.85;1.83;;;19.10;92.60;;;;;;4946147;28;20081;-85
2023/10/14 08:34:51;;;;;;;3.75;1.70;;;19.20;92.60;;;;;;4976631;28;20027;-87
2023/10/14 08:37:17;;;;;;;3.85;1.90;;;19.10;92.60;;;;;;4959251;28;20074;-86
2023/10/14 08:39:44;;;;;;;4.03;1.90;;;19.20;92.90;;;;;;4959357;28;20033;-86
2023/10/14 08:42:10;;;;;;;3.75;1.85;;;19.20;92.60;;;;;;4958518;28;20023;-85
2023/10/14 08:44:42;;;;;;;3.30;1.80;;;19.20;92.60;;;;;;4959334;28;20023;-86
2023/10/14 08:47:13;;;;;;;3.38;1.50;;;19.30;92.60;;;;;;4959126;28;20027;-86
2023/10/14 08:49:41;;;;;;;3.05;1.80;;;19.20;92.60;;;;;;4959374;28;20477;-86
2023/10/14 08:52:14;;;;;;;4.40;2.00;;;19.30;92.60;;;;;;4958904;28;20054;-85
2023/10/14 08:54:42;;;;;;;3.40;1.65;;;19.30;92.60;;;;;;4958939;28;20030;-86
2023/10/14 08:57:07;;;;;;;3.63;1.67;;;19.30;92.50;;;;;;4959209;28;20031;-85
2023/10/14 08:59:33;;;;;;;4.40;1.90;;;19.40;92.50;;;;;;4958971;28;20041;-86
2023/10/14 09:01:58;;;;;;;3.80;1.83;;;19.40;92.50;;;;;;4958819;28;20517;-86
2023/10/14 09:04:31;;;;;;;2.65;1.55;;;19.50;92.40;;;;;;4958934;28;20393;-82
2023/10/14 09:07:03;;;;;;;2.92;1.80;;;19.50;92.30;;;;;;4976207;28;20035;-83
2023/10/14 09:09:31;;;;;;;3.20;1.60;;;19.50;92.30;;;;;;4976166;28;20390;-84
2023/10/14 09:12:10;;;;;;;3.38;1.52;;;19.50;92.20;;;;;;4974811;28;20023;-82
2023/10/14 09:14:37;;;;;;;2.80;1.67;;;19.50;92.20;;;;;;4952113;28;20027;-83
2023/10/14 09:17:08;;;;;;;2.65;1.40;;;19.50;92.20;;;;;;4923922;29;20548;-83
2023/10/14 09:19:48;;;;;;;4.37;1.77;;;19.50;92.30;;;;;;4920287;29;20058;-83
2023/10/14 09:22:35;;;;;;;3.05;1.65;;;19.50;92.30;;;;;;4920300;29;20031;-84
2023/10/14 09:25:03;;;;;;;3.33;1.67;;;19.50;92.30;;;;;;4919933;29;20024;-83
2023/10/14 09:27:30;;;;;;;3.88;1.80;;;19.50;92.30;;;;;;4929073;28;20015;-83
2023/10/14 09:29:57;;;;;;;3.72;1.63;;;19.50;92.30;;;;;;4974728;28;20029;-84
2023/10/14 09:32:23;;;;;;;3.28;1.73;;;19.50;92.30;;;;;;4958026;28;20058;-83
2023/10/14 09:34:51;;;;;;;4.07;1.80;;;19.50;92.30;;;;;;4948935;28;20023;-83
2023/10/14 09:37:21;;;;;;;2.60;1.42;;;19.50;92.40;;;;;;4955459;29;20027;-82
2023/10/14 09:39:49;;;;;;;4.85;1.88;;;19.50;92.40;;;;;;4939159;29;20042;-81
2023/10/14 09:42:18;;;;;;;2.95;1.55;;;19.50;92.40;;;;;;4956105;29;20400;-84
2023/10/14 09:44:45;;;;;;;3.45;1.58;;;19.60;92.40;;;;;;4938915;29;20496;-83
2023/10/14 09:47:13;;;;;;;3.10;1.58;;;19.50;92.40;;;;;;4938648;29;20078;-84
2023/10/14 09:49:39;;;;;;;3.40;1.52;;;19.50;92.40;;;;;;4956282;29;20019;-83
2023/10/14 09:52:06;;;;;;;3.00;1.60;;;19.50;92.40;;;;;;4938303;29;20402;-85
2023/10/14 09:54:33;;;;;;;4.10;1.70;;;19.50;92.40;;;;;;4938795;29;20023;-84
2023/10/14 09:57:03;;;;;;;3.95;1.60;;;19.60;92.40;;;;;;4938794;29;20101;-84
2023/10/14 09:59:30;;;;;;;3.92;1.60;;;19.60;92.60;;;;;;4956180;29;20062;-84
2023/10/14 10:01:56;;;;;;;3.33;1.73;;;19.60;92.40;;;;;;4937486;29;20027;-83
2023/10/14 10:04:30;;;;;;;3.47;1.60;;;19.60;92.30;;;;;;4938410;29;20038;-84
2023/10/14 10:07:04;;;;;;;3.58;1.70;;;19.60;92.20;;;;;;4938644;29;20405;-85
2023/10/14 10:09:35;;;;;;;2.58;1.38;;;19.70;92.10;;;;;;4938619;29;20402;-79
2023/10/14 10:12:04;;;;;;;3.50;1.65;;;19.70;92.10;;;;;;4938648;29;20027;-84
2023/10/14 10:14:37;;;;;;;2.65;1.48;;;19.70;92.00;;;;;;4938354;29;20027;-86
2023/10/14 10:17:08;;;;;;;4.75;1.80;;;19.70;92.00;;;;;;4938427;29;20031;-83
2023/10/14 10:19:58;;;;;;;3.72;1.63;;;19.70;92.00;;;;;;4938351;29;20041;-83
2023/10/14 10:22:25;;;;;;;4.10;1.58;;;19.70;92.10;;;;;;4937977;29;20058;-84
2023/10/14 10:24:53;;;;;;;2.40;1.40;;;19.60;92.10;;;;;;4938210;29;20053;-83
2023/10/14 10:27:20;;;;;;;4.90;1.80;;;19.60;92.20;;;;;;4938244;29;20491;-83
2023/10/14 10:29:49;;;;;;;7.07;1.88;;;19.50;92.20;;;;;;4955230;29;20024;-85
2023/10/14 10:32:33;;;;;;;36.42;3.92;;;19.50;92.10;;;;;;4938164;29;20119;-85
2023/10/14 10:35:05;;;;;;;25.83;3.40;;;19.60;91.90;;;;;;4937234;29;20034;-86
2023/10/14 10:37:40;;;;;;;18.08;3.15;;;19.70;91.90;;;;;;4937955;29;20028;-87
2023/10/14 10:40:11;;;;;;;20.00;3.40;;;19.70;91.70;;;;;;4938200;29;20045;-85
2023/10/14 10:42:37;;;;;;;24.73;3.10;;;19.60;91.30;;;;;;4953934;29;20027;-85
2023/10/14 11:19:32;;;;;;;14.05;2.50;;;19.50;90.80;;;;;;5776759;23;20232;-84
2023/10/14 11:21:59;;;;;;;11.40;2.20;;;19.50;90.80;;;;;;4968945;28;20137;-85
2023/10/14 13:22:29;;;;;;;10.90;2.35;;;19.40;88.30;;;;;;5500726;23;20066;-87
2023/10/14 13:24:55;;;;;;;11.43;1.85;;;19.40;88.50;;;;;;5020041;28;20044;-84
2023/10/14 13:28:09;;;;;;;11.80;1.98;;;19.70;88.80;;;;;;5020213;28;20033;-86
2023/10/14 13:30:36;;;;;;;11.50;1.70;;;19.40;88.80;;;;;;5002318;28;20521;-85
2023/10/14 13:33:03;;;;;;;12.57;2.05;;;19.40;89.20;;;;;;5017043;28;20029;-85
2023/10/14 13:35:31;;;;;;;10.18;1.83;;;19.30;89.10;;;;;;5018138;28;20040;-84
2023/10/14 13:37:56;;;;;;;10.60;1.70;;;19.30;89.00;;;;;;5034172;28;20033;-83
2023/10/14 13:40:22;;;;;;;11.80;1.83;;;19.30;89.30;;;;;;5033002;28;20113;-84
2023/10/14 13:42:52;;;;;;;11.13;2.20;;;19.30;89.40;;;;;;5016441;28;20380;-85
2023/10/14 13:45:22;;;;;;;7.75;1.38;;;19.40;89.50;;;;;;5016652;28;20029;-85
2023/10/14 13:47:48;;;;;;;8.13;1.67;;;19.30;89.60;;;;;;5016758;28;20099;-87
2023/10/14 13:50:20;;;;;;;9.07;1.85;;;19.30;89.70;;;;;;5015688;28;20857;-87
2023/10/14 13:52:51;;;;;;;;;;;19.30;89.80;;;;;;5015484;28;20029;-87
2023/10/14 13:55:21;;;;;;;11.27;1.95;;;19.30;89.90;;;;;;5015448;28;20003;-86
2023/10/14 13:57:47;;;;;;;9.35;1.52;;;19.20;89.90;;;;;;5014407;28;20412;-85
2023/10/14 14:00:18;;;;;;;8.82;1.80;;;19.20;89.90;;;;;;5014126;28;20087;-86
2023/10/14 14:02:48;;;;;;;12.43;2.08;;;19.30;89.90;;;;;;5013616;28;20052;-87
2023/10/14 14:05:18;;;;;;;8.77;1.80;;;19.30;89.90;;;;;;5014475;28;20036;-86
2023/10/14 14:07:45;;;;;;;9.03;1.70;;;19.30;89.80;;;;;;5014266;28;20053;-86
2023/10/14 14:10:16;;;;;;;9.63;1.60;;;19.30;89.90;;;;;;5013695;28;20112;-87
2023/10/14 14:12:42;;;;;;;8.65;1.83;;;19.20;89.90;;;;;;5013800;28;20036;-86
2023/10/14 14:15:08;;;;;;;7.88;1.50;;;19.30;90.00;;;;;;5013994;28;20152;-86
2023/10/14 14:17:34;;;;;;;8.75;1.98;;;19.20;90.00;;;;;;5013974;28;20026;-86
2023/10/14 14:20:00;;;;;;;7.50;1.23;;;19.20;90.10;;;;;;5013823;28;20025;-84
2023/10/14 14:22:26;;;;;;;7.38;1.42;;;19.20;90.10;;;;;;5013857;28;20048;-87
2023/10/14 14:24:51;;;;;;;7.30;1.15;;;19.30;90.20;;;;;;5006874;28;20018;-86
2023/10/14 14:27:18;;;;;;;9.63;1.63;;;19.20;90.20;;;;;;4994106;28;20028;-86
2023/10/14 14:29:45;;;;;;;7.00;1.33;;;19.30;90.30;;;;;;4994684;28;20063;-85
2023/10/14 14:32:10;;;;;;;6.55;1.60;;;19.20;90.30;;;;;;4993894;28;20451;-87
2023/10/14 14:34:51;;;;;;;7.40;1.52;;;19.20;90.30;;;;;;4994236;28;20073;-87
2023/10/14 14:37:17;;;;;;;;;;;19.40;90.30;;;;;;5022189;28;20499;-86
2023/10/14 14:39:43;;;;;;;7.20;1.60;;;19.20;90.00;;;;;;5017079;28;19963;-88
2023/10/14 14:42:10;;;;;;;7.65;1.45;;;19.10;90.10;;;;;;5016667;28;20037;-88
2023/10/14 14:44:38;;;;;;;10.73;1.75;;;19.10;90.20;;;;;;5016929;28;20082;-88
2023/10/14 14:47:04;;;;;;;5.47;1.30;;;19.10;90.30;;;;;;5017567;28;20503;-88
2023/10/14 14:49:29;;;;;;;8.13;1.25;;;19.10;90.20;;;;;;5034847;28;20021;-87
2023/10/14 14:51:55;;;;;;;5.68;0.90;;;19.10;90.10;;;;;;5016606;28;20112;-87
2023/10/14 14:54:22;;;;;;;6.28;1.48;;;19.10;90.10;;;;;;5016167;28;20034;-88
2023/10/14 14:56:47;;;;;;;7.82;1.67;;;19.10;90.10;;;;;;5033702;28;20026;-88
2023/10/14 14:59:13;;;;;;;6.82;1.45;;;19.10;90.10;;;;;;5016744;28;20041;-88
2023/10/14 15:01:41;;;;;;;6.75;1.25;;;19.20;90.20;;;;;;5015563;28;20112;-88
2023/10/14 15:04:07;;;;;;;7.45;1.50;;;19.10;90.10;;;;;;5015586;28;20391;-89
2023/10/14 15:06:35;;;;;;;7.18;1.40;;;19.20;90.20;;;;;;5015692;28;20025;-88
2023/10/14 15:09:03;;;;;;;7.82;1.70;;;19.10;90.20;;;;;;5016041;28;20025;-88
2023/10/14 15:11:29;;;;;;;4.57;1.00;;;19.10;90.30;;;;;;5015784;28;20026;-88
2023/10/14 15:13:55;;;;;;;5.63;1.30;;;19.10;90.30;;;;;;5015557;28;20022;-88
2023/10/14 15:16:21;;;;;;;6.55;1.52;;;19.10;90.40;;;;;;5016109;28;20068;-87
2023/10/14 15:18:47;;;;;;;5.55;1.30;;;19.00;90.40;;;;;;5016265;28;20025;-88
2023/10/14 15:21:12;;;;;;;6.00;1.17;;;19.00;90.40;;;;;;5016456;28;20033;-88
2023/10/14 15:23:38;;;;;;;5.65;1.40;;;19.00;90.50;;;;;;5016072;28;20033;-88
2023/10/14 15:26:07;;;;;;;5.43;1.10;;;19.50;90.60;;;;;;5016214;28;20028;-88
2023/10/14 15:28:33;;;;;;;3.83;1.08;;;19.00;90.50;;;;;;5016094;28;20369;-88
2023/10/14 15:31:00;;;;;;;6.00;1.13;;;19.00;90.60;;;;;;5016809;28;20075;-88
2023/10/14 15:33:26;;;;;;;4.32;1.10;;;19.00;90.60;;;;;;5005200;28;20056;-89
2023/10/14 15:35:53;;;;;;;4.65;1.00;;;19.00;90.60;;;;;;4996819;28;20033;-89
2023/10/14 15:38:18;;;;;;;3.65;1.10;;;19.80;90.90;;;;;;4997434;28;20084;-88
2023/10/14 15:40:48;;;;;;;4.30;1.10;;;19.00;90.70;;;;;;4997204;28;20022;-88
2023/10/14 15:43:14;;;;;;;4.57;1.10;;;19.00;90.70;;;;;;4997070;28;20400;-88
2023/10/14 15:45:39;;;;;;;4.82;1.20;;;19.00;90.70;;;;;;4997324;28;20029;-88
2023/10/14 15:48:11;;;;;;;5.03;1.25;;;18.90;91.00;;;;;;4997648;28;20025;-88
2023/10/14 15:50:43;;;;;;;4.03;1.02;;;19.00;91.00;;;;;;4996935;28;20026;-88
2023/10/14 15:53:11;;;;;;;4.90;1.20;;;19.00;90.70;;;;;;5014317;28;20033;-88
2023/10/14 15:55:38;;;;;;;6.47;1.30;;;19.00;90.60;;;;;;4996602;28;20112;-89
2023/10/14 15:58:07;;;;;;;4.75;0.95;;;19.00;90.60;;;;;;4996433;28;20124;-88
2023/10/14 16:00:34;;;;;;;3.75;1.10;;;19.00;90.60;;;;;;4996618;28;20030;-87
2023/10/14 16:03:07;;;;;;;4.45;1.30;;;19.00;90.60;;;;;;4995883;28;20029;-89